Time;durP1;ratioP1;P1;durP2;ratioP2;P2;SDS_P1;SDS_P2;PMS_P1;PMS_P2;Temp;Humidity;BMP_temperature;BMP_pressure;BME280_temperature;BME280_humidity;BME280_pressure;Samples;Min_cycle;Max_cycle;Signal;HPM_P1;HPM_P2
2023/12/10 00:02:18;;;;;;;;;;;;;;;10.28;75.98;98668.66;1087705;54;1209;-82
2023/12/10 00:03:19;;;;;;;;;;;;;;;10.34;75.80;98675.13;1088556;54;971;-82
2023/12/10 00:04:20;;;;;;;;;;;;;;;10.34;75.38;98672.44;1088206;47;869;-81
2023/12/10 00:05:23;;;;;;;;;;;;;;;10.26;75.57;98672.50;1087963;47;1116;-82
2023/12/10 00:06:24;;;;;;;;;;;;;;;10.26;75.21;98669.84;1087967;54;1309;-83
2023/12/10 00:07:25;;;;;;;;;;;;;;;10.21;74.92;98669.53;1088137;47;1050;-81
2023/12/10 00:08:28;;;;;;;;;;;;;;;10.23;74.61;98681.72;1087800;54;1880;-82
2023/12/10 00:09:29;;;;;;;;;;;;;;;10.15;74.20;98674.56;1087979;54;1130;-81
2023/12/10 00:10:33;;;;;;;;;;;;;;;10.15;74.34;98669.22;1088182;54;1177;-83
2023/12/10 00:11:34;;;;;;;;;;;;;;;10.36;73.48;98674.94;1088231;54;958;-82
2023/12/10 00:12:46;;;;;;;;;;;;;;;10.25;74.10;98670.84;1087864;47;1097;-83
2023/12/10 00:13:47;;;;;;;;;;;;;;;10.20;74.12;98681.22;1087951;47;1149;-82
2023/12/10 00:14:54;;;;;;;;;;;;;;;10.25;74.21;98685.00;1088056;54;1034;-81
2023/12/10 00:15:54;;;;;;;;;;;;;;;10.16;74.38;98683.41;1088061;54;1335;-83
2023/12/10 00:16:55;;;;;;;;;;;;;;;10.22;74.02;98684.53;1088560;54;926;-83
2023/12/10 00:18:01;;;;;;;;;;;;;;;10.34;73.72;98688.47;1088599;54;997;-84
2023/12/10 00:19:02;;;;;;;;;;;;;;;10.30;73.88;98687.16;1088576;47;1047;-83
2023/12/10 00:20:06;;;;;;;;;;;;;;;10.28;73.88;98682.00;1088385;47;860;-82
2023/12/10 00:21:07;;;;;;;;;;;;;;;10.21;74.21;98688.22;1088467;54;1000;-83
2023/12/10 00:22:11;;;;;;;;;;;;;;;10.29;73.69;98680.19;1088453;54;974;-82
2023/12/10 00:23:12;;;;;;;;;;;;;;;10.33;73.76;98692.16;1088538;47;1206;-83
2023/12/10 00:24:16;;;;;;;;;;;;;;;10.28;73.42;98698.03;1088168;46;955;-79
2023/12/10 00:25:17;;;;;;;;;;;;;;;10.21;73.42;98697.06;1086343;47;1088;-79
2023/12/10 00:26:20;;;;;;;;;;;;;;;10.18;73.60;98680.56;1085910;47;1244;-79
2023/12/10 00:27:21;;;;;;;;;;;;;;;10.35;73.37;98698.16;1086445;54;1171;-80
2023/12/10 00:28:24;;;;;;;;;;;;;;;10.34;72.78;98691.16;1086457;54;1859;-79
2023/12/10 00:29:25;;;;;;;;;;;;;;;10.20;73.29;98700.75;1086256;54;1178;-79
2023/12/10 00:30:28;;;;;;;;;;;;;;;10.37;72.90;98706.00;1086456;54;983;-80
2023/12/10 00:31:29;;;;;;;;;;;;;;;10.29;72.49;98705.03;1086729;54;1146;-80
2023/12/10 00:32:33;;;;;;;;;;;;;;;10.29;72.96;98710.38;1086403;54;1019;-79
2023/12/10 00:33:37;;;;;;;;;;;;;;;10.22;72.89;98705.91;1086108;47;1084;-80
2023/12/10 00:34:38;;;;;;;;;;;;;;;10.36;72.25;98723.88;1086629;47;1190;-80
2023/12/10 00:35:41;;;;;;;;;;;;;;;10.34;72.44;98731.22;1086912;46;1325;-81
2023/12/10 00:36:42;;;;;;;;;;;;;;;10.20;72.53;98731.97;1086978;47;1023;-80
2023/12/10 00:37:42;;;;;;;;;;;;;;;10.24;72.55;98746.63;1086919;54;1325;-80
2023/12/10 00:38:46;;;;;;;;;;;;;;;10.17;72.68;98735.00;1086983;54;1139;-79
2023/12/10 00:39:46;;;;;;;;;;;;;;;10.21;72.63;98733.63;1086839;46;1091;-81
2023/12/10 00:40:47;;;;;;;;;;;;;;;10.10;72.68;98746.38;1087018;47;1138;-80
2023/12/10 00:41:51;;;;;;;;;;;;;;;10.25;72.36;98742.94;1087003;47;1119;-81
2023/12/10 00:42:52;;;;;;;;;;;;;;;10.21;72.38;98744.28;1086777;47;1190;-81
2023/12/10 00:43:56;;;;;;;;;;;;;;;10.36;72.04;98747.91;1086898;47;1080;-80
2023/12/10 00:44:56;;;;;;;;;;;;;;;10.40;71.72;98751.09;1086863;54;1111;-79
2023/12/10 00:46:00;;;;;;;;;;;;;;;10.42;71.82;98751.75;1087078;54;1393;-81
2023/12/10 00:47:00;;;;;;;;;;;;;;;10.43;71.81;98756.91;1086641;47;1067;-78
2023/12/10 00:48:04;;;;;;;;;;;;;;;10.22;72.06;98775.34;1086840;54;1099;-80
2023/12/10 00:49:08;;;;;;;;;;;;;;;10.27;72.10;98778.34;1086812;47;1107;-80
2023/12/10 00:50:12;;;;;;;;;;;;;;;10.25;72.33;98775.00;1086459;46;1175;-80
2023/12/10 00:51:17;;;;;;;;;;;;;;;10.44;71.43;98779.97;1086579;54;1472;-80
2023/12/10 00:52:21;;;;;;;;;;;;;;;10.44;71.46;98787.13;1086543;47;1159;-80
2023/12/10 00:53:23;;;;;;;;;;;;;;;10.52;71.58;98791.59;1086668;54;1174;-80
2023/12/10 00:54:27;;;;;;;;;;;;;;;10.35;71.68;98797.00;1086740;54;1075;-81
2023/12/10 00:55:28;;;;;;;;;;;;;;;10.36;71.56;98801.34;1086579;47;1397;-80
2023/12/10 00:56:31;;;;;;;;;;;;;;;10.25;72.03;98793.69;1087574;54;1123;-81
2023/12/10 00:57:34;;;;;;;;;;;;;;;10.26;72.20;98808.72;1087481;54;1104;-81
2023/12/10 00:58:37;;;;;;;;;;;;;;;10.08;72.42;98812.47;1087425;54;1147;-79
2023/12/10 00:59:38;;;;;;;;;;;;;;;10.08;72.70;98803.59;1087391;54;1182;-79
2023/12/10 01:00:41;;;;;;;;;;;;;;;10.15;72.46;98809.94;1087091;47;1035;-80
2023/12/10 01:01:42;;;;;;;;;;;;;;;10.07;72.24;98816.13;1087254;47;1043;-80
2023/12/10 01:02:46;;;;;;;;;;;;;;;10.09;72.44;98816.81;1086784;54;1186;-81
2023/12/10 01:03:47;;;;;;;;;;;;;;;10.21;72.28;98814.59;1087237;54;1063;-80
2023/12/10 01:04:53;;;;;;;;;;;;;;;10.23;72.14;98811.72;1087135;47;1583;-81
2023/12/10 01:05:53;;;;;;;;;;;;;;;10.32;71.86;98807.22;1087446;54;1355;-80
2023/12/10 01:06:54;;;;;;;;;;;;;;;10.26;71.43;98809.53;1087433;54;1153;-81
2023/12/10 01:07:59;;;;;;;;;;;;;;;10.23;71.18;98815.25;1087286;46;1113;-81
2023/12/10 01:08:59;;;;;;;;;;;;;;;10.03;72.08;98822.81;1087294;47;1885;-79
2023/12/10 01:10:04;;;;;;;;;;;;;;;10.09;71.46;98803.44;1087081;47;1161;-79
2023/12/10 01:11:06;;;;;;;;;;;;;;;10.10;71.43;98813.13;1087359;47;1033;-80
2023/12/10 01:12:10;;;;;;;;;;;;;;;10.23;70.67;98815.25;1087103;47;1102;-81
2023/12/10 01:13:11;;;;;;;;;;;;;;;10.15;71.03;98824.13;1087447;47;1116;-79
2023/12/10 01:14:12;;;;;;;;;;;;;;;10.03;71.58;98825.47;1087473;54;948;-81
2023/12/10 01:15:16;;;;;;;;;;;;;;;9.97;71.66;98829.66;1087662;54;1071;-80
2023/12/10 01:16:16;;;;;;;;;;;;;;;10.10;71.45;98834.50;1087136;54;1273;-80
2023/12/10 01:17:20;;;;;;;;;;;;;;;10.09;71.59;98830.16;1087310;54;1025;-81
2023/12/10 01:18:21;;;;;;;;;;;;;;;10.25;70.98;98847.13;1087332;47;1054;-81
2023/12/10 01:19:26;;;;;;;;;;;;;;;10.18;71.04;98838.13;1087203;47;1138;-80
2023/12/10 01:20:30;;;;;;;;;;;;;;;9.95;71.68;98847.72;1087476;47;1073;-81
2023/12/10 01:21:34;;;;;;;;;;;;;;;10.08;71.31;98849.84;1087761;47;1136;-80
2023/12/10 01:22:35;;;;;;;;;;;;;;;10.26;70.78;98851.47;1087498;47;960;-81
2023/12/10 01:23:37;;;;;;;;;;;;;;;10.19;71.13;98855.84;1087601;47;1057;-81
2023/12/10 01:24:41;;;;;;;;;;;;;;;10.33;70.49;98851.63;1087662;47;1067;-80
2023/12/10 01:25:42;;;;;;;;;;;;;;;10.25;70.54;98849.78;1087256;54;1350;-81
2023/12/10 01:26:45;;;;;;;;;;;;;;;10.12;70.67;98856.50;1087016;54;1106;-80
2023/12/10 01:27:46;;;;;;;;;;;;;;;10.21;70.79;98859.13;1086649;47;1012;-80
2023/12/10 01:28:50;;;;;;;;;;;;;;;10.07;70.77;98864.19;1087286;47;1845;-80
2023/12/10 01:29:50;;;;;;;;;;;;;;;10.05;71.05;98871.53;1087267;47;1088;-79
2023/12/10 01:30:54;;;;;;;;;;;;;;;10.14;70.42;98867.03;1087178;47;1158;-81
2023/12/10 01:31:55;;;;;;;;;;;;;;;10.18;70.21;98872.84;1087792;54;1091;-81
2023/12/10 01:32:59;;;;;;;;;;;;;;;10.11;70.22;98881.53;1087344;47;1099;-80
2023/12/10 01:34:00;;;;;;;;;;;;;;;10.24;69.92;98877.50;1087115;47;1094;-80
2023/12/10 01:35:04;;;;;;;;;;;;;;;10.12;69.94;98877.84;1087402;54;1106;-81
2023/12/10 01:36:08;;;;;;;;;;;;;;;10.12;69.93;98883.19;1087597;47;1380;-80
2023/12/10 01:37:11;;;;;;;;;;;;;;;10.22;69.90;98887.53;1087600;54;1170;-80
2023/12/10 01:38:12;;;;;;;;;;;;;;;10.18;69.56;98886.22;1087386;46;1175;-81
2023/12/10 01:39:14;;;;;;;;;;;;;;;10.41;69.16;98895.19;1087574;47;1017;-81
2023/12/10 01:40:19;;;;;;;;;;;;;;;10.41;69.22;98895.19;1087797;54;1465;-81
2023/12/10 01:41:20;;;;;;;;;;;;;;;10.39;69.36;98894.50;1087205;54;1067;-80
2023/12/10 01:42:24;;;;;;;;;;;;;;;10.26;69.63;98888.84;1087372;47;1027;-81
2023/12/10 01:43:25;;;;;;;;;;;;;;;10.30;69.30;98885.66;1087483;47;1088;-80
2023/12/10 01:44:28;;;;;;;;;;;;;;;10.12;69.48;98887.72;1087542;54;1103;-81
2023/12/10 01:45:30;;;;;;;;;;;;;;;10.11;69.68;98891.41;1087442;47;1496;-81
2023/12/10 01:46:34;;;;;;;;;;;;;;;10.19;69.25;98901.22;1087216;47;1104;-81
2023/12/10 01:47:35;;;;;;;;;;;;;;;10.37;68.89;98896.53;1087483;46;1040;-80
2023/12/10 01:48:40;;;;;;;;;;;;;;;10.38;68.50;98908.03;1087235;47;1856;-80
2023/12/10 01:49:41;;;;;;;;;;;;;;;10.25;68.69;98895.19;1086971;47;1071;-80
2023/12/10 01:50:46;;;;;;;;;;;;;;;10.37;68.71;98909.03;1087489;54;1036;-80
2023/12/10 01:51:50;;;;;;;;;;;;;;;10.52;68.03;98914.53;1087824;54;1132;-83
2023/12/10 01:52:58;;;;;;;;;;;;;;;10.42;68.40;98917.41;1088269;47;1008;-81
2023/12/10 01:54:00;;;;;;;;;;;;;;;10.44;68.01;98915.38;1088308;46;919;-82
2023/12/10 01:55:04;;;;;;;;;;;;;;;10.42;68.24;98920.91;1088352;54;1110;-82
2023/12/10 01:56:13;;;;;;;;;;;;;;;10.48;67.79;98926.56;1088240;47;1312;-83
2023/12/10 01:57:17;;;;;;;;;;;;;;;10.42;67.79;98920.91;1088152;54;1046;-81
2023/12/10 01:58:18;;;;;;;;;;;;;;;10.39;68.02;98926.56;1087635;54;1040;-81
2023/12/10 01:59:22;;;;;;;;;;;;;;;10.44;67.85;98929.56;1087898;47;1509;-81
2023/12/10 02:00:25;;;;;;;;;;;;;;;10.37;67.82;98941.06;1088143;54;1095;-82
2023/12/10 02:01:29;;;;;;;;;;;;;;;10.53;67.58;98943.72;1088188;47;1074;-81
2023/12/10 02:02:30;;;;;;;;;;;;;;;10.49;67.59;98941.56;1087938;47;1046;-79
2023/12/10 02:03:35;;;;;;;;;;;;;;;10.23;67.87;98926.59;1087396;47;1115;-81
2023/12/10 02:04:42;;;;;;;;;;;;;;;10.24;67.92;98945.13;1088149;47;1084;-82
2023/12/10 02:05:42;;;;;;;;;;;;;;;10.39;67.86;98939.09;1087959;46;1418;-82
2023/12/10 02:06:46;;;;;;;;;;;;;;;10.33;67.72;98950.44;1088053;47;1122;-82
2023/12/10 02:07:50;;;;;;;;;;;;;;;10.38;67.79;98950.78;1088242;54;1020;-81
2023/12/10 02:08:53;;;;;;;;;;;;;;;10.48;67.36;98942.59;1088227;54;1884;-83
2023/12/10 02:09:54;;;;;;;;;;;;;;;10.44;67.32;98948.28;1088118;54;1043;-82
2023/12/10 02:10:59;;;;;;;;;;;;;;;10.36;67.67;98950.94;1088282;54;1077;-81
2023/12/10 02:12:01;;;;;;;;;;;;;;;10.24;67.72;98961.16;1088191;47;1055;-82
2023/12/10 02:13:05;;;;;;;;;;;;;;;10.21;67.79;98960.63;1087968;54;1086;-82
2023/12/10 02:14:06;;;;;;;;;;;;;;;10.35;67.51;98967.13;1088412;47;933;-82
2023/12/10 02:15:16;;;;;;;;;;;;;;;10.27;67.50;98970.66;1088147;47;1095;-83
2023/12/10 02:16:17;;;;;;;;;;;;;;;10.47;66.94;98964.97;1088385;54;1388;-82
2023/12/10 02:17:23;;;;;;;;;;;;;;;10.32;67.22;98956.78;1088120;46;996;-81
2023/12/10 02:18:23;;;;;;;;;;;;;;;10.20;67.21;98970.50;1088172;54;1110;-81
2023/12/10 02:19:28;;;;;;;;;;;;;;;10.36;67.12;98964.31;1088345;54;1235;-82
2023/12/10 02:20:28;;;;;;;;;;;;;;;10.24;67.20;98969.16;1088332;54;1134;-81
2023/12/10 02:21:33;;;;;;;;;;;;;;;10.26;67.40;98966.31;1088372;54;992;-81
2023/12/10 02:22:45;;;;;;;;;;;;;;;10.24;67.21;98965.66;1088392;54;1091;-81
2023/12/10 02:23:54;;;;;;;;;;;;;;;10.11;67.74;98979.50;1088130;54;1027;-81
2023/12/10 02:24:56;;;;;;;;;;;;;;;10.07;67.86;98962.16;1088040;54;1150;-82
2023/12/10 02:26:02;;;;;;;;;;;;;;;9.97;68.12;98986.38;1087970;54;1519;-81
2023/12/10 02:27:03;;;;;;;;;;;;;;;10.04;67.87;98989.22;1088231;54;1130;-82
2023/12/10 02:28:08;;;;;;;;;;;;;;;10.21;67.28;98990.88;1088018;47;1084;-80
2023/12/10 02:29:08;;;;;;;;;;;;;;;10.07;67.84;98984.38;1087718;47;1877;-80
2023/12/10 02:30:10;;;;;;;;;;;;;;;10.07;68.04;99000.38;1087995;54;897;-81
2023/12/10 02:31:13;;;;;;;;;;;;;;;10.10;68.00;98989.38;1088135;47;1517;-81
2023/12/10 02:32:14;;;;;;;;;;;;;;;10.02;68.30;98994.69;1088291;54;1013;-81
2023/12/10 02:33:20;;;;;;;;;;;;;;;10.10;68.13;98985.84;1088361;47;971;-81
2023/12/10 02:34:21;;;;;;;;;;;;;;;10.00;68.92;98994.06;1087459;47;1167;-80
2023/12/10 02:35:22;;;;;;;;;;;;;;;9.91;69.04;98990.53;1087323;54;1075;-80
2023/12/10 02:36:26;;;;;;;;;;;;;;;10.01;68.69;98997.53;1087411;47;1354;-81
2023/12/10 02:37:26;;;;;;;;;;;;;;;10.00;69.20;98999.38;1087066;47;961;-81
2023/12/10 02:38:30;;;;;;;;;;;;;;;10.08;68.52;99001.19;1087539;54;1208;-80
2023/12/10 02:39:31;;;;;;;;;;;;;;;9.83;68.88;99007.38;1087426;54;1083;-81
2023/12/10 02:40:35;;;;;;;;;;;;;;;9.77;69.15;99002.69;1087426;46;1155;-80
2023/12/10 02:41:40;;;;;;;;;;;;;;;9.94;68.46;99014.25;1087725;54;1022;-81
2023/12/10 02:42:44;;;;;;;;;;;;;;;9.92;68.42;99010.06;1087323;47;1050;-80
2023/12/10 02:43:45;;;;;;;;;;;;;;;9.94;68.28;99016.06;1087370;54;1057;-80
2023/12/10 02:44:49;;;;;;;;;;;;;;;9.89;68.15;99021.06;1086908;47;1059;-80
2023/12/10 02:45:49;;;;;;;;;;;;;;;9.69;68.25;99016.03;1086460;47;1314;-79
2023/12/10 02:46:50;;;;;;;;;;;;;;;9.72;68.16;99026.38;1086950;54;1080;-80
2023/12/10 02:47:54;;;;;;;;;;;;;;;9.71;68.11;99023.88;1086829;54;1164;-79
2023/12/10 02:48:54;;;;;;;;;;;;;;;9.78;67.94;99023.06;1086603;47;1905;-80
2023/12/10 02:49:55;;;;;;;;;;;;;;;9.67;68.23;99031.38;1086511;47;1064;-80
2023/12/10 02:50:58;;;;;;;;;;;;;;;9.79;67.81;99026.53;1086537;54;1058;-80
2023/12/10 02:52:00;;;;;;;;;;;;;;;10.02;67.22;99021.41;1086919;54;1485;-79
2023/12/10 02:53:04;;;;;;;;;;;;;;;9.94;66.98;99024.06;1087199;54;1094;-82
2023/12/10 02:54:04;;;;;;;;;;;;;;;9.83;67.08;99036.72;1086768;54;1031;-79
2023/12/10 02:55:09;;;;;;;;;;;;;;;9.74;67.12;99028.88;1086467;54;1087;-79
2023/12/10 02:56:10;;;;;;;;;;;;;;;9.83;66.84;99036.72;1087064;54;1265;-80
2023/12/10 02:57:17;;;;;;;;;;;;;;;9.78;67.03;99041.75;1087126;47;1090;-80
2023/12/10 02:58:18;;;;;;;;;;;;;;;9.78;66.64;99052.41;1087333;47;1087;-80
2023/12/10 02:59:22;;;;;;;;;;;;;;;9.82;66.72;99050.25;1087444;47;1128;-80
2023/12/10 03:00:23;;;;;;;;;;;;;;;9.90;66.12;99044.09;1086805;54;1091;-80
2023/12/10 03:01:27;;;;;;;;;;;;;;;9.71;66.22;99061.22;1086838;54;1240;-79
2023/12/10 03:02:28;;;;;;;;;;;;;;;9.64;66.54;99056.56;1086574;46;1059;-79
2023/12/10 03:03:31;;;;;;;;;;;;;;;9.72;66.41;99057.56;1086402;54;1107;-79
2023/12/10 03:04:32;;;;;;;;;;;;;;;9.82;65.93;99059.06;1086643;54;1270;-80
2023/12/10 03:05:36;;;;;;;;;;;;;;;9.83;65.83;99068.75;1086182;54;1284;-79
2023/12/10 03:06:37;;;;;;;;;;;;;;;9.77;65.89;99061.41;1086408;46;1137;-80
2023/12/10 03:07:37;;;;;;;;;;;;;;;9.72;65.99;99061.09;1086079;54;1099;-80
2023/12/10 03:08:41;;;;;;;;;;;;;;;9.62;66.05;99069.22;1085993;54;1170;-79
2023/12/10 03:09:42;;;;;;;;;;;;;;;9.58;66.44;99069.72;1085945;54;1873;-79
2023/12/10 03:10:46;;;;;;;;;;;;;;;9.50;66.69;99071.34;1085585;47;1007;-80
2023/12/10 03:11:47;;;;;;;;;;;;;;;9.49;66.90;99075.03;1085652;47;1078;-79
2023/12/10 03:12:53;;;;;;;;;;;;;;;9.56;66.90;99069.88;1085777;54;1068;-79
2023/12/10 03:13:54;;;;;;;;;;;;;;;9.47;67.26;99079.69;1085781;54;1150;-79
2023/12/10 03:14:58;;;;;;;;;;;;;;;9.20;67.68;99075.41;1085923;54;1136;-79
2023/12/10 03:15:58;;;;;;;;;;;;;;;9.12;68.33;99065.53;1086029;47;1419;-80
2023/12/10 03:17:02;;;;;;;;;;;;;;;9.07;68.64;99067.81;1085749;47;1151;-79
2023/12/10 03:18:02;;;;;;;;;;;;;;;9.07;68.84;99073.16;1085725;54;1086;-80
2023/12/10 03:19:06;;;;;;;;;;;;;;;9.05;68.88;99086.66;1086180;47;1150;-80
2023/12/10 03:20:09;;;;;;;;;;;;;;;9.01;69.23;99063.16;1085901;54;1162;-78
2023/12/10 03:21:12;;;;;;;;;;;;;;;9.10;68.79;99062.19;1085824;47;1103;-79
2023/12/10 03:22:13;;;;;;;;;;;;;;;9.14;69.17;99076.88;1085773;54;1167;-80
2023/12/10 03:23:15;;;;;;;;;;;;;;;9.16;69.08;99074.88;1085868;47;1126;-78
2023/12/10 03:24:19;;;;;;;;;;;;;;;9.20;69.00;99073.56;1085672;47;1143;-79
2023/12/10 03:25:19;;;;;;;;;;;;;;;9.15;69.33;99072.38;1085518;54;1177;-78
2023/12/10 03:26:22;;;;;;;;;;;;;;;9.19;69.35;99079.91;1085382;54;1377;-79
2023/12/10 03:27:23;;;;;;;;;;;;;;;9.01;69.99;99084.47;1086511;54;1218;-82
2023/12/10 03:28:30;;;;;;;;;;;;;;;9.15;69.69;99089.22;1087692;54;1161;-81
2023/12/10 03:29:31;;;;;;;;;;;;;;;8.97;70.24;99080.47;1087519;54;1857;-80
2023/12/10 03:30:34;;;;;;;;;;;;;;;8.97;70.40;99096.47;1087749;47;1043;-83
2023/12/10 03:31:35;;;;;;;;;;;;;;;9.07;70.19;99091.81;1087789;47;1048;-81
2023/12/10 03:32:39;;;;;;;;;;;;;;;9.16;70.21;99092.72;1088114;54;1079;-81
2023/12/10 03:33:40;;;;;;;;;;;;;;;9.01;70.26;99095.13;1087506;47;1004;-80
2023/12/10 03:34:41;;;;;;;;;;;;;;;9.02;70.75;99078.97;1087721;47;999;-80
2023/12/10 03:35:45;;;;;;;;;;;;;;;9.07;70.57;99077.66;1088001;47;1248;-81
2023/12/10 03:36:48;;;;;;;;;;;;;;;9.05;70.84;99077.84;1088174;47;989;-83
2023/12/10 03:37:51;;;;;;;;;;;;;;;9.00;70.95;99083.66;1088328;47;1111;-83
2023/12/10 03:39:00;;;;;;;;;;;;;;;9.09;70.72;99079.19;1088376;54;1001;-82
2023/12/10 03:40:04;;;;;;;;;;;;;;;9.10;70.74;99086.19;1088214;47;1115;-79
2023/12/10 03:41:05;;;;;;;;;;;;;;;9.05;70.77;99085.84;1088272;54;1416;-80
2023/12/10 03:42:06;;;;;;;;;;;;;;;9.07;70.76;99093.66;1088349;54;998;-81
2023/12/10 03:43:10;;;;;;;;;;;;;;;9.17;70.43;99084.53;1088290;46;899;-81
2023/12/10 03:44:17;;;;;;;;;;;;;;;9.17;70.57;99091.72;1088241;47;954;-80
2023/12/10 03:45:26;;;;;;;;;;;;;;;9.13;70.80;99091.22;1088333;54;974;-81
2023/12/10 03:46:27;;;;;;;;;;;;;;;9.13;70.72;99091.22;1088076;47;1323;-81
2023/12/10 03:47:30;;;;;;;;;;;;;;;9.02;70.65;99089.63;1088072;47;1007;-79
2023/12/10 03:48:31;;;;;;;;;;;;;;;9.20;70.41;99102.91;1088184;47;1334;-81
2023/12/10 03:49:37;;;;;;;;;;;;;;;9.05;70.42;99092.00;1088049;47;1840;-81
2023/12/10 03:50:38;;;;;;;;;;;;;;;9.08;70.33;99101.50;1087891;47;997;-81
2023/12/10 03:51:41;;;;;;;;;;;;;;;9.21;69.76;99087.72;1088253;54;1083;-78
2023/12/10 03:52:42;;;;;;;;;;;;;;;9.25;69.82;99098.94;1086209;47;1004;-79
2023/12/10 03:53:46;;;;;;;;;;;;;;;9.25;69.47;99093.59;1086537;54;1143;-79
2023/12/10 03:54:47;;;;;;;;;;;;;;;9.24;69.50;99107.94;1086632;54;1186;-79
2023/12/10 03:55:50;;;;;;;;;;;;;;;9.16;69.96;99095.38;1086337;47;1405;-79
2023/12/10 03:56:51;;;;;;;;;;;;;;;9.02;70.29;99102.97;1086689;47;1170;-79
2023/12/10 03:57:54;;;;;;;;;;;;;;;9.11;69.81;99109.19;1086610;47;1090;-79
2023/12/10 03:58:55;;;;;;;;;;;;;;;9.04;70.28;99116.97;1086721;47;1136;-80
2023/12/10 04:00:02;;;;;;;;;;;;;;;9.04;70.35;99114.31;1086673;54;1135;-79
2023/12/10 04:01:05;;;;;;;;;;;;;;;9.16;69.82;99106.88;1086626;54;1063;-79
2023/12/10 04:02:09;;;;;;;;;;;;;;;9.16;70.00;99124.72;1086730;54;1072;-80
2023/12/10 04:03:11;;;;;;;;;;;;;;;9.25;70.11;99122.94;1086737;47;1127;-79
2023/12/10 04:04:15;;;;;;;;;;;;;;;9.16;69.93;99109.53;1086502;47;1260;-78
2023/12/10 04:05:15;;;;;;;;;;;;;;;9.18;70.08;99114.72;1087151;54;1111;-79
2023/12/10 04:06:19;;;;;;;;;;;;;;;9.18;70.25;99101.41;1086465;47;1349;-78
2023/12/10 04:07:20;;;;;;;;;;;;;;;9.30;69.87;99096.63;1087038;54;1388;-78
2023/12/10 04:08:23;;;;;;;;;;;;;;;9.20;70.04;99110.91;1086764;54;1195;-79
2023/12/10 04:09:24;;;;;;;;;;;;;;;9.10;69.81;99106.69;1086937;54;1870;-79
2023/12/10 04:10:28;;;;;;;;;;;;;;;9.13;69.80;99107.22;1086825;47;1179;-79
2023/12/10 04:11:29;;;;;;;;;;;;;;;9.13;69.31;99101.03;1087274;47;1190;-79
2023/12/10 04:12:39;;;;;;;;;;;;;;;9.23;69.26;99111.59;1087571;54;1044;-79
2023/12/10 04:13:55;;;;;;;;;;;;;;;9.33;68.74;99121.13;1087442;47;1063;-79
2023/12/10 04:15:10;;;;;;;;;;;;;;;9.32;68.79;99122.13;1087777;54;1080;-78
2023/12/10 04:16:11;;;;;;;;;;;;;;;9.25;68.60;99125.59;1086741;54;1378;-77
2023/12/10 04:17:15;;;;;;;;;;;;;;;9.32;68.22;99137.31;1086854;47;1138;-79
2023/12/10 04:18:16;;;;;;;;;;;;;;;9.47;68.16;99135.69;1087071;54;1178;-79
2023/12/10 04:19:20;;;;;;;;;;;;;;;9.38;67.79;99144.66;1086922;47;1362;-80
2023/12/10 04:20:20;;;;;;;;;;;;;;;9.47;67.54;99140.22;1086694;54;1099;-78
2023/12/10 04:21:24;;;;;;;;;;;;;;;9.36;67.23;99143.97;1087082;47;1098;-81
2023/12/10 04:22:26;;;;;;;;;;;;;;;9.38;66.93;99143.84;1087013;54;1130;-79
2023/12/10 04:23:31;;;;;;;;;;;;;;;9.30;66.99;99152.63;1087011;47;1001;-81
2023/12/10 04:24:31;;;;;;;;;;;;;;;9.38;66.66;99157.19;1087050;47;1112;-80
2023/12/10 04:25:35;;;;;;;;;;;;;;;9.53;66.16;99155.56;1086585;54;1338;-81
2023/12/10 04:26:36;;;;;;;;;;;;;;;9.41;66.65;99148.84;1085902;47;1138;-81
2023/12/10 04:27:39;;;;;;;;;;;;;;;9.46;66.22;99150.03;1086195;47;1166;-79
2023/12/10 04:28:40;;;;;;;;;;;;;;;9.45;66.10;99142.19;1086615;54;1193;-81
2023/12/10 04:29:44;;;;;;;;;;;;;;;9.38;66.24;99146.50;1087404;54;1869;-80
2023/12/10 04:30:55;;;;;;;;;;;;;;;9.33;66.27;99154.97;1087824;47;1029;-80
2023/12/10 04:31:59;;;;;;;;;;;;;;;9.35;66.18;99153.00;1088030;54;1032;-81
2023/12/10 04:33:00;;;;;;;;;;;;;;;9.47;65.89;99166.88;1087942;54;1223;-81
2023/12/10 04:34:04;;;;;;;;;;;;;;;9.52;65.66;99153.91;1088201;54;1104;-81
2023/12/10 04:35:05;;;;;;;;;;;;;;;9.49;65.86;99165.72;1088267;54;1116;-81
2023/12/10 04:36:08;;;;;;;;;;;;;;;9.33;66.09;99158.47;1088114;54;1153;-80
2023/12/10 04:37:09;;;;;;;;;;;;;;;9.31;65.70;99149.78;1088063;47;920;-80
2023/12/10 04:38:18;;;;;;;;;;;;;;;9.40;65.78;99166.69;1087996;47;1068;-81
2023/12/10 04:39:19;;;;;;;;;;;;;;;9.44;65.58;99162.72;1088148;54;955;-80
2023/12/10 04:40:28;;;;;;;;;;;;;;;9.45;65.62;99167.03;1087876;47;1088;-80
2023/12/10 04:41:36;;;;;;;;;;;;;;;9.44;65.64;99168.06;1087793;47;1146;-83
2023/12/10 04:42:40;;;;;;;;;;;;;;;9.38;65.74;99162.50;1087713;47;1114;-81
2023/12/10 04:43:41;;;;;;;;;;;;;;;9.42;65.43;99164.69;1087898;47;1039;-81
2023/12/10 04:44:45;;;;;;;;;;;;;;;9.51;65.27;99166.41;1087945;47;1059;-79
2023/12/10 04:45:45;;;;;;;;;;;;;;;9.37;65.43;99161.66;1087880;47;1396;-81
2023/12/10 04:46:51;;;;;;;;;;;;;;;9.38;65.57;99162.50;1088010;54;1095;-81
2023/12/10 04:47:52;;;;;;;;;;;;;;;9.57;65.40;99169.44;1088154;47;1130;-79
2023/12/10 04:49:01;;;;;;;;;;;;;;;9.58;64.68;99157.75;1087999;47;1118;-80
2023/12/10 04:50:10;;;;;;;;;;;;;;;9.57;64.95;99169.44;1088164;54;1917;-78
2023/12/10 04:51:14;;;;;;;;;;;;;;;9.38;65.06;99168.66;1087950;54;1242;-78
2023/12/10 04:52:22;;;;;;;;;;;;;;;9.41;65.07;99163.03;1088065;47;1146;-79
2023/12/10 04:53:23;;;;;;;;;;;;;;;9.59;64.70;99152.25;1087879;54;1005;-78
2023/12/10 04:54:26;;;;;;;;;;;;;;;9.48;64.37;99165.91;1087908;47;1008;-81
2023/12/10 04:55:27;;;;;;;;;;;;;;;9.50;64.56;99167.41;1087669;47;1576;-80
2023/12/10 04:56:31;;;;;;;;;;;;;;;9.64;64.23;99163.31;1087582;54;1439;-80
2023/12/10 04:57:32;;;;;;;;;;;;;;;9.58;64.22;99155.09;1087490;54;1142;-80
2023/12/10 04:58:35;;;;;;;;;;;;;;;9.58;64.15;99179.97;1087364;54;1154;-81
2023/12/10 04:59:38;;;;;;;;;;;;;;;9.51;64.49;99176.22;1086962;54;1167;-79
2023/12/10 05:00:41;;;;;;;;;;;;;;;9.47;64.52;99188.22;1086653;47;1161;-81
2023/12/10 05:01:43;;;;;;;;;;;;;;;9.45;64.69;99175.03;1086734;54;1192;-79
2023/12/10 05:02:51;;;;;;;;;;;;;;;9.55;64.09;99174.09;1087501;47;1143;-81
2023/12/10 05:03:52;;;;;;;;;;;;;;;9.50;64.07;99177.22;1087160;47;1127;-78
2023/12/10 05:04:53;;;;;;;;;;;;;;;9.51;64.29;99174.41;1086875;46;1111;-78
2023/12/10 05:06:03;;;;;;;;;;;;;;;9.56;64.14;99191.75;1087667;46;1364;-78
2023/12/10 05:07:04;;;;;;;;;;;;;;;9.45;64.43;99185.72;1087853;47;1194;-81
2023/12/10 05:08:08;;;;;;;;;;;;;;;9.41;64.44;99179.03;1087960;54;1166;-78
2023/12/10 05:09:10;;;;;;;;;;;;;;;9.37;64.72;99183.00;1088121;46;1207;-79
2023/12/10 05:10:11;;;;;;;;;;;;;;;9.46;64.39;99192.72;1088220;54;1858;-79
2023/12/10 05:11:14;;;;;;;;;;;;;;;9.40;64.07;99190.69;1088199;54;1090;-82
2023/12/10 05:12:16;;;;;;;;;;;;;;;9.36;64.23;99192.84;1088343;47;1048;-79
2023/12/10 05:13:20;;;;;;;;;;;;;;;9.48;64.11;99195.25;1088152;54;1134;-79
2023/12/10 05:14:20;;;;;;;;;;;;;;;9.39;64.30;99197.03;1087832;54;1110;-79
2023/12/10 05:15:24;;;;;;;;;;;;;;;9.36;64.39;99192.00;1087617;47;1035;-79
2023/12/10 05:16:24;;;;;;;;;;;;;;;9.47;63.96;99186.38;1087015;54;1341;-78
2023/12/10 05:17:28;;;;;;;;;;;;;;;9.48;64.05;99195.25;1087040;47;1180;-79
2023/12/10 05:18:31;;;;;;;;;;;;;;;9.47;63.92;99204.25;1087437;46;1040;-79
2023/12/10 05:19:35;;;;;;;;;;;;;;;9.47;64.13;99194.41;1087628;47;1087;-82
2023/12/10 05:20:35;;;;;;;;;;;;;;;9.41;63.97;99192.38;1087505;47;1163;-79
2023/12/10 05:21:39;;;;;;;;;;;;;;;9.30;64.31;99195.31;1087818;47;1118;-80
2023/12/10 05:22:40;;;;;;;;;;;;;;;9.29;64.31;99189.16;1088125;47;1033;-81
2023/12/10 05:23:44;;;;;;;;;;;;;;;9.31;64.21;99189.78;1088253;47;1181;-80
2023/12/10 05:24:44;;;;;;;;;;;;;;;9.33;64.36;99182.47;1087708;47;1034;-78
2023/12/10 05:25:48;;;;;;;;;;;;;;;9.26;64.24;99185.97;1088325;54;1370;-78
2023/12/10 05:26:49;;;;;;;;;;;;;;;9.42;63.95;99201.19;1088266;47;981;-80
2023/12/10 05:27:52;;;;;;;;;;;;;;;9.39;64.16;99206.88;1087886;47;1025;-79
2023/12/10 05:28:53;;;;;;;;;;;;;;;9.44;63.78;99208.06;1088143;46;1116;-78
2023/12/10 05:29:59;;;;;;;;;;;;;;;9.45;63.88;99217.72;1088105;54;1857;-81
2023/12/10 05:31:00;;;;;;;;;;;;;;;9.44;63.70;99207.22;1088368;54;942;-81
2023/12/10 05:32:04;;;;;;;;;;;;;;;9.44;63.78;99226.75;1088295;54;964;-81
2023/12/10 05:33:05;;;;;;;;;;;;;;;9.46;63.99;99214.06;1088162;46;1044;-83
2023/12/10 05:34:17;;;;;;;;;;;;;;;9.39;64.09;99223.69;1088265;54;1080;-80
2023/12/10 05:35:18;;;;;;;;;;;;;;;9.36;63.97;99218.66;1088281;54;1085;-79
2023/12/10 05:36:23;;;;;;;;;;;;;;;9.48;64.02;99222.75;1088359;46;1376;-79